地図

経路データ

SID SEASON NUMBER BASIN SUBBASIN NAME ISO_TIME NATURE LAT LON WMO_WIND WMO_PRES WMO_AGENCY TRACK_TYPE DIST2LAND LANDFALL IFLAG USA_AGENCY USA_ATCF_ID USA_LAT USA_LON USA_RECORD USA_STATUS USA_WIND USA_PRES USA_SSHS USA_R34_NE USA_R34_SE USA_R34_SW USA_R34_NW USA_R50_NE USA_R50_SE USA_R50_SW USA_R50_NW USA_R64_NE USA_R64_SE USA_R64_SW USA_R64_NW USA_POCI USA_ROCI USA_RMW USA_EYE TOKYO_LAT TOKYO_LON TOKYO_GRADE TOKYO_WIND TOKYO_PRES TOKYO_R50_DIR TOKYO_R50_LONG TOKYO_R50_SHORT TOKYO_R30_DIR TOKYO_R30_LONG TOKYO_R30_SHORT TOKYO_LAND CMA_LAT CMA_LON CMA_CAT CMA_WIND CMA_PRES HKO_LAT HKO_LON HKO_CAT HKO_WIND HKO_PRES NEWDELHI_LAT NEWDELHI_LON NEWDELHI_GRADE NEWDELHI_WIND NEWDELHI_PRES NEWDELHI_CI NEWDELHI_DP NEWDELHI_POCI REUNION_LAT REUNION_LON REUNION_TYPE REUNION_WIND REUNION_PRES REUNION_TNUM REUNION_CI REUNION_RMW REUNION_R34_NE REUNION_R34_SE REUNION_R34_SW REUNION_R34_NW REUNION_R50_NE REUNION_R50_SE REUNION_R50_SW REUNION_R50_NW REUNION_R64_NE REUNION_R64_SE REUNION_R64_SW REUNION_R64_NW BOM_LAT BOM_LON BOM_TYPE BOM_WIND BOM_PRES BOM_TNUM BOM_CI BOM_RMW BOM_R34_NE BOM_R34_SE BOM_R34_SW BOM_R34_NW BOM_R50_NE BOM_R50_SE BOM_R50_SW BOM_R50_NW BOM_R64_NE BOM_R64_SE BOM_R64_SW BOM_R64_NW BOM_ROCI BOM_POCI BOM_EYE BOM_POS_METHOD BOM_PRES_METHOD NADI_LAT NADI_LON NADI_CAT NADI_WIND NADI_PRES WELLINGTON_LAT WELLINGTON_LON WELLINGTON_WIND WELLINGTON_PRES DS824_LAT DS824_LON DS824_STAGE DS824_WIND DS824_PRES TD9636_LAT TD9636_LON TD9636_STAGE TD9636_WIND TD9636_PRES TD9635_LAT TD9635_LON TD9635_WIND TD9635_PRES TD9635_ROCI NEUMANN_LAT NEUMANN_LON NEUMANN_CLASS NEUMANN_WIND NEUMANN_PRES MLC_LAT MLC_LON MLC_CLASS MLC_WIND MLC_PRES USA_GUST BOM_GUST BOM_GUST_PER REUNION_GUST REUNION_GUST_PER USA_SEAHGT USA_SEARAD_NE USA_SEARAD_SE USA_SEARAD_SW USA_SEARAD_NW STORM_SPEED STORM_DIR
1903011S12064 1903 6 SI MM NOT_NAMED 1903-01-11 00:00:00 TS -11.7000 63.8000 main 1144 1094 _________O____ -1 -11.7000 63.8000 TC 9 212
1903011S12064 1903 6 SI MM NOT_NAMED 1903-01-11 03:00:00 TS -12.0850 63.5526 main 1094 1014 _________P____ -1 -12.0850 63.5526 TC 12 212
1903011S12064 1903 6 SI MM NOT_NAMED 1903-01-11 06:00:00 TS -12.7250 63.1500 main 1014 950 _________OO___ -1 -12.5000 63.3000 TC -13.4000 62.7000 7 13 210
1903011S12064 1903 6 SI MM NOT_NAMED 1903-01-11 09:00:00 TS -13.2139 62.8764 main 950 885 _________PP___ -1 -12.9575 63.0425 TC -13.7266 62.5440 7 11 208
1903011S12064 1903 6 SI MM NOT_NAMED 1903-01-11 12:00:00 TS -13.6797 62.6244 main 885 845 _________OP___ -1 -13.4000 62.8000 TC -14.0526 62.3903 7 10 208
1903011S12064 1903 6 SI MM NOT_NAMED 1903-01-11 15:00:00 TS -14.0674 62.4169 main 836 803 _________PP___ -1 -13.7575 62.5923 TC -14.3772 62.2414 7 8 207
1903011S12064 1903 6 SI MM NOT_NAMED 1903-01-11 18:00:00 TS -14.4000 62.2500 main 803 763 _________OO___ -1 -14.1000 62.4000 TC -14.7000 62.1000 7 7 205
1903011S12064 1903 6 SI MM NOT_NAMED 1903-01-11 21:00:00 TS -14.7379 62.0920 main 763 714 _________PP___ -1 -14.4549 62.2147 TC -15.0209 61.9694 7 8 203
1903011S12064 1903 6 SI MM NOT_NAMED 1903-01-12 00:00:00 TS -15.1212 61.9275 main 714 657 _________OP___ -1 -14.9000 62.0000 TC -15.3425 61.8550 7 9 202
1903011S12064 1903 6 SI MM NOT_NAMED 1903-01-12 03:00:00 TS -15.5902 61.7391 main 657 608 _________PP___ -1 -15.5125 61.7151 TC -15.6678 61.7632 7 11 200
1903011S12064 1903 6 SI MM NOT_NAMED 1903-01-12 06:00:00 TS -16.1000 61.5500 main 608 552 _________OO___ -1 -16.2000 61.4000 TC -16.0000 61.7000 7 11 199
1903011S12064 1903 6 SI MM NOT_NAMED 1903-01-12 09:00:00 TS -16.6021 61.3834 main 552 498 _________PP___ -1 -16.8575 61.0998 TC -16.3468 61.6670 7 11 197
1903011S12064 1903 6 SI MM NOT_NAMED 1903-01-12 12:00:00 TS -17.1000 61.2311 main 498 454 _________OP___ -1 -17.5000 60.8000 TC -16.7000 61.6623 7 10 196
1903011S12064 1903 6 SI MM NOT_NAMED 1903-01-12 15:00:00 TS -17.5765 61.0844 main 454 418 _________PP___ -1 -18.1000 60.4923 TC -17.0531 61.6764 7 10 196
1903011S12064 1903 6 SI MM NOT_NAMED 1903-01-12 18:00:00 TS -18.0500 60.9500 main 418 371 _________OO___ -1 -18.7000 60.2000 TC -17.4000 61.7000 7 10 195
1903011S12064 1903 6 SI MM NOT_NAMED 1903-01-12 21:00:00 TS -18.5598 60.8170 main 365 336 _________PP___ -1 -19.3875 59.9202 TC -17.7322 61.7138 7 10 193
1903011S12064 1903 6 SI MM NOT_NAMED 1903-01-13 00:00:00 TS -19.0287 60.7175 main 336 319 _________OP___ -1 -20.0000 59.7000 TC -18.0575 61.7350 7 8 189
1903011S12064 1903 6 SI MM NOT_NAMED 1903-01-13 03:00:00 TS -19.3907 60.6742 main 319 310 _________PP___ -1 -20.4024 59.5846 TC -18.3791 61.7638 7 7 186
1903011S12064 1903 6 SI MM NOT_NAMED 1903-01-13 06:00:00 TS -19.7000 60.6500 main 310 294 _________OO___ -1 -20.7000 59.5000 TC -18.7000 61.8000 7 6 186
1903011S12064 1903 6 SI MM NOT_NAMED 1903-01-13 09:00:00 TS -20.0186 60.6021 main 294 291 _________PP___ -1 -21.0000 59.3574 TC -19.0372 61.8468 7 6 189
1903011S12064 1903 6 SI MM NOT_NAMED 1903-01-13 12:00:00 TS -20.3363 60.5499 main 281 281 _________OP___ -1 -21.3000 59.2000 TC -19.3725 61.8999 7 7 188
1903011S12064 1903 6 SI MM NOT_NAMED 1903-01-13 15:00:00 TS -20.6695 60.5052 main 284 284 _________PP___ -1 -21.6425 59.0574 TC -19.6966 61.9530 7 5 168
1903011S12064 1903 6 SI MM NOT_NAMED 1903-01-13 18:00:00 TS -20.8571 60.6714 main 309 309 _________OO___ -1 -22.0000 58.9000 TC -20.0000 62.0000 7 5 127
1903011S12064 1903 6 SI MM NOT_NAMED 1903-01-13 21:00:00 TS -20.9625 60.9196 main 331 331 _________PP___ -1 -22.3526 58.7102 TC -20.2675 62.0243 7 6 99
1903011S12064 1903 6 SI MM NOT_NAMED 1903-01-14 00:00:00 TS -20.9520 61.3342 main 372 372 _________OP___ -1 -22.7000 58.5000 TC -20.5150 62.0428 7 11 79
1903011S12064 1903 6 SI MM NOT_NAMED 1903-01-14 03:00:00 NR -20.7550 62.0649 main 451 451 __________P___ -1 TC -20.7550 62.0649 7 7 94
1903011S12064 1903 6 SI MM NOT_NAMED 1903-01-14 06:00:00 NR -21.0000 62.1000 main 454 454 __________O___ -1 -21.0000 62.1000 7 5 170
1903011S12064 1903 6 SI MM NOT_NAMED 1903-01-14 09:00:00 NR -21.2719 62.1606 main 470 470 __________P___ -1 -21.2719 62.1606 7 6 167
1903011S12064 1903 6 SI MM NOT_NAMED 1903-01-14 12:00:00 NR -21.5500 62.2349 main 479 479 __________P___ -1 -21.5500 62.2349 7 6 165
1903011S12064 1903 6 SI MM NOT_NAMED 1903-01-14 15:00:00 NR -21.8281 62.3168 main 496 496 __________P___ -1 -21.8281 62.3168 7 6 165
1903011S12064 1903 6 SI MM NOT_NAMED 1903-01-14 18:00:00 NR -22.1000 62.4000 main 517 517 __________O___ -1 -22.1000 62.4000 7 6 165
1903011S12064 1903 6 SI MM NOT_NAMED 1903-01-14 21:00:00 NR -22.3609 62.4793 main 540 540 __________P___ -1 -22.3609 62.4793 7 5 164
1903011S12064 1903 6 SI MM NOT_NAMED 1903-01-15 00:00:00 NR -22.6125 62.5549 main 558 558 __________P___ -1 -22.6125 62.5549 7 5 164
1903011S12064 1903 6 SI MM NOT_NAMED 1903-01-15 03:00:00 NR -22.8578 62.6280 main 572 572 __________P___ -1 -22.8578 62.6280 7 5 165
1903011S12064 1903 6 SI MM NOT_NAMED 1903-01-15 06:00:00 NR -23.1000 62.7000 main 592 __________O___ -1 -23.1000 62.7000 7 5 165

IBTrACS Databaseについて

本データベースは、米国NOAAが公開する1842年以降の世界の熱帯低気圧のベストトラックデータアーカイブInternational Best Track Archive for Climate Stewardship (IBTrACS)を、ウェブで閲覧しやすい形式に変換したものです。

最終更新日:2021-10-27